sensor_id;sensor_type;location;lat;lon;timestamp;noise_LAeq;noise_LA_min;noise_LA_max;noise_LA01;noise_LA95
72686;Laerm;61365;52.162;4.500;2024-02-28T00:01:07;43.11;31.99;48.17;;
72686;Laerm;61365;52.162;4.500;2024-02-28T00:03:33;42.98;33.51;49.91;;
72686;Laerm;61365;52.162;4.500;2024-02-28T00:05:59;43.00;33.22;49.56;;
72686;Laerm;61365;52.162;4.500;2024-02-28T00:08:25;42.92;32.69;49.15;;
72686;Laerm;61365;52.162;4.500;2024-02-28T00:10:52;43.26;33.84;51.96;;
72686;Laerm;61365;52.162;4.500;2024-02-28T00:13:18;43.17;32.56;51.91;;
72686;Laerm;61365;52.162;4.500;2024-02-28T00:15:46;43.08;33.43;50.57;;
72686;Laerm;61365;52.162;4.500;2024-02-28T00:18:12;43.06;32.52;49.82;;
72686;Laerm;61365;52.162;4.500;2024-02-28T00:20:38;42.96;32.69;49.79;;
72686;Laerm;61365;52.162;4.500;2024-02-28T00:23:04;42.82;32.96;48.87;;
72686;Laerm;61365;52.162;4.500;2024-02-28T00:25:30;42.82;33.19;51.51;;
72686;Laerm;61365;52.162;4.500;2024-02-28T00:27:56;42.89;32.90;49.72;;
72686;Laerm;61365;52.162;4.500;2024-02-28T00:30:23;42.89;32.44;51.57;;
72686;Laerm;61365;52.162;4.500;2024-02-28T00:32:49;43.03;33.14;52.09;;
72686;Laerm;61365;52.162;4.500;2024-02-28T00:35:15;43.04;31.66;51.76;;
72686;Laerm;61365;52.162;4.500;2024-02-28T00:37:41;43.16;31.84;50.60;;
72686;Laerm;61365;52.162;4.500;2024-02-28T00:40:08;43.17;33.71;49.98;;
72686;Laerm;61365;52.162;4.500;2024-02-28T00:42:34;43.13;31.69;51.51;;
72686;Laerm;61365;52.162;4.500;2024-02-28T00:45:00;43.10;34.69;48.43;;
72686;Laerm;61365;52.162;4.500;2024-02-28T00:47:26;43.04;32.24;45.90;;
72686;Laerm;61365;52.162;4.500;2024-02-28T00:49:52;43.01;33.64;47.99;;
72686;Laerm;61365;52.162;4.500;2024-02-28T00:52:19;42.97;32.58;50.58;;
72686;Laerm;61365;52.162;4.500;2024-02-28T00:54:45;42.85;32.48;51.53;;
72686;Laerm;61365;52.162;4.500;2024-02-28T00:57:11;42.85;32.54;49.52;;
72686;Laerm;61365;52.162;4.500;2024-02-28T00:59:37;43.14;31.89;51.35;;
72686;Laerm;61365;52.162;4.500;2024-02-28T01:02:03;42.79;31.93;49.34;;
72686;Laerm;61365;52.162;4.500;2024-02-28T01:04:29;42.96;32.56;49.77;;
72686;Laerm;61365;52.162;4.500;2024-02-28T01:06:55;43.12;32.71;51.56;;
72686;Laerm;61365;52.162;4.500;2024-02-28T01:09:22;43.05;32.55;47.98;;
72686;Laerm;61365;52.162;4.500;2024-02-28T01:11:48;43.10;33.12;49.70;;
72686;Laerm;61365;52.162;4.500;2024-02-28T01:14:14;43.03;32.60;49.83;;
72686;Laerm;61365;52.162;4.500;2024-02-28T01:16:40;42.86;32.85;50.01;;
72686;Laerm;61365;52.162;4.500;2024-02-28T01:19:06;42.86;32.57;49.94;;
72686;Laerm;61365;52.162;4.500;2024-02-28T01:21:32;43.03;32.95;50.13;;
72686;Laerm;61365;52.162;4.500;2024-02-28T01:23:59;42.91;32.75;52.01;;
72686;Laerm;61365;52.162;4.500;2024-02-28T01:26:25;43.01;33.76;49.87;;
72686;Laerm;61365;52.162;4.500;2024-02-28T01:28:51;43.14;32.77;50.39;;
72686;Laerm;61365;52.162;4.500;2024-02-28T01:31:17;42.84;32.18;51.63;;
72686;Laerm;61365;52.162;4.500;2024-02-28T01:33:43;42.96;32.65;50.08;;
72686;Laerm;61365;52.162;4.500;2024-02-28T01:36:11;43.25;32.09;49.53;;
72686;Laerm;61365;52.162;4.500;2024-02-28T01:38:37;43.12;31.46;47.49;;
72686;Laerm;61365;52.162;4.500;2024-02-28T01:41:03;43.07;32.93;49.77;;
72686;Laerm;61365;52.162;4.500;2024-02-28T01:43:31;42.93;31.99;52.26;;
72686;Laerm;61365;52.162;4.500;2024-02-28T01:46:04;42.95;33.62;49.18;;
72686;Laerm;61365;52.162;4.500;2024-02-28T01:48:31;42.84;32.58;51.41;;
72686;Laerm;61365;52.162;4.500;2024-02-28T01:50:57;42.94;32.95;49.52;;
72686;Laerm;61365;52.162;4.500;2024-02-28T01:53:24;42.94;32.96;49.83;;
72686;Laerm;61365;52.162;4.500;2024-02-28T01:55:50;42.99;32.73;50.45;;
72686;Laerm;61365;52.162;4.500;2024-02-28T01:58:18;42.92;32.20;50.31;;
72686;Laerm;61365;52.162;4.500;2024-02-28T02:00:44;42.87;32.31;51.78;;
72686;Laerm;61365;52.162;4.500;2024-02-28T02:03:12;43.00;33.52;48.04;;
72686;Laerm;61365;52.162;4.500;2024-02-28T02:05:38;42.94;32.88;51.72;;
72686;Laerm;61365;52.162;4.500;2024-02-28T02:08:04;43.01;32.53;50.90;;
72686;Laerm;61365;52.162;4.500;2024-02-28T02:10:31;42.96;33.09;47.81;;
72686;Laerm;61365;52.162;4.500;2024-02-28T02:13:07;42.90;33.32;50.52;;
72686;Laerm;61365;52.162;4.500;2024-02-28T02:15:33;42.82;32.28;50.57;;
72686;Laerm;61365;52.162;4.500;2024-02-28T02:17:59;42.84;32.10;51.80;;
72686;Laerm;61365;52.162;4.500;2024-02-28T02:20:26;42.83;35.07;48.45;;
72686;Laerm;61365;52.162;4.500;2024-02-28T02:22:56;42.89;32.03;50.52;;
72686;Laerm;61365;52.162;4.500;2024-02-28T02:25:22;42.80;31.99;49.89;;
72686;Laerm;61365;52.162;4.500;2024-02-28T02:27:48;42.82;32.53;50.59;;
72686;Laerm;61365;52.162;4.500;2024-02-28T02:30:14;42.87;31.95;51.57;;
72686;Laerm;61365;52.162;4.500;2024-02-28T02:32:40;42.94;33.32;51.86;;
72686;Laerm;61365;52.162;4.500;2024-02-28T02:35:07;42.83;32.07;50.15;;
72686;Laerm;61365;52.162;4.500;2024-02-28T02:37:33;42.81;33.24;52.13;;
72686;Laerm;61365;52.162;4.500;2024-02-28T02:39:59;42.86;31.78;51.71;;
72686;Laerm;61365;52.162;4.500;2024-02-28T02:42:26;42.91;32.92;52.01;;
72686;Laerm;61365;52.162;4.500;2024-02-28T02:44:52;42.85;32.06;51.26;;
72686;Laerm;61365;52.162;4.500;2024-02-28T02:47:19;42.89;32.27;46.84;;
72686;Laerm;61365;52.162;4.500;2024-02-28T02:49:45;42.92;34.24;48.51;;
72686;Laerm;61365;52.162;4.500;2024-02-28T02:52:11;42.97;33.93;51.39;;
72686;Laerm;61365;52.162;4.500;2024-02-28T02:54:37;42.89;31.66;49.99;;
72686;Laerm;61365;52.162;4.500;2024-02-28T02:57:03;42.84;34.08;46.99;;
72686;Laerm;61365;52.162;4.500;2024-02-28T02:59:30;42.86;32.10;50.22;;
72686;Laerm;61365;52.162;4.500;2024-02-28T03:01:56;42.92;33.26;47.86;;
72686;Laerm;61365;52.162;4.500;2024-02-28T03:04:22;42.88;33.18;47.22;;
72686;Laerm;61365;52.162;4.500;2024-02-28T03:06:48;42.83;34.12;48.48;;
72686;Laerm;61365;52.162;4.500;2024-02-28T03:09:14;42.88;33.28;51.55;;
72686;Laerm;61365;52.162;4.500;2024-02-28T03:11:40;42.90;32.05;50.22;;
72686;Laerm;61365;52.162;4.500;2024-02-28T03:14:06;42.92;31.80;50.11;;
72686;Laerm;61365;52.162;4.500;2024-02-28T03:16:32;42.87;32.51;51.98;;
72686;Laerm;61365;52.162;4.500;2024-02-28T03:19:03;42.73;32.26;50.42;;
72686;Laerm;61365;52.162;4.500;2024-02-28T03:21:29;42.73;33.41;51.87;;
72686;Laerm;61365;52.162;4.500;2024-02-28T03:23:55;42.74;32.26;49.72;;
72686;Laerm;61365;52.162;4.500;2024-02-28T03:26:21;42.88;33.80;48.42;;
72686;Laerm;61365;52.162;4.500;2024-02-28T03:28:47;42.90;32.27;50.19;;
72686;Laerm;61365;52.162;4.500;2024-02-28T03:31:13;42.83;32.85;49.14;;
72686;Laerm;61365;52.162;4.500;2024-02-28T03:33:40;42.82;32.33;51.78;;
72686;Laerm;61365;52.162;4.500;2024-02-28T03:36:06;42.73;33.83;51.47;;
72686;Laerm;61365;52.162;4.500;2024-02-28T03:38:32;42.93;33.98;46.33;;
72686;Laerm;61365;52.162;4.500;2024-02-28T03:40:58;42.81;33.43;49.40;;
72686;Laerm;61365;52.162;4.500;2024-02-28T03:43:24;42.84;32.75;49.71;;
72686;Laerm;61365;52.162;4.500;2024-02-28T03:45:50;42.98;33.58;48.01;;
72686;Laerm;61365;52.162;4.500;2024-02-28T03:48:16;42.86;32.67;47.51;;
72686;Laerm;61365;52.162;4.500;2024-02-28T03:50:43;43.00;32.77;47.68;;
72686;Laerm;61365;52.162;4.500;2024-02-28T03:53:09;42.98;32.53;49.87;;
72686;Laerm;61365;52.162;4.500;2024-02-28T03:55:35;42.85;32.63;50.95;;
72686;Laerm;61365;52.162;4.500;2024-02-28T03:58:01;42.80;32.54;50.42;;
72686;Laerm;61365;52.162;4.500;2024-02-28T04:00:28;42.77;32.32;50.35;;
72686;Laerm;61365;52.162;4.500;2024-02-28T04:02:54;42.98;33.08;49.30;;
72686;Laerm;61365;52.162;4.500;2024-02-28T04:05:20;43.01;32.56;49.83;;
72686;Laerm;61365;52.162;4.500;2024-02-28T04:07:46;43.04;32.06;51.74;;
72686;Laerm;61365;52.162;4.500;2024-02-28T04:10:13;42.97;33.14;49.33;;
72686;Laerm;61365;52.162;4.500;2024-02-28T04:12:43;43.02;34.13;48.19;;
72686;Laerm;61365;52.162;4.500;2024-02-28T04:15:16;42.96;32.87;47.80;;
72686;Laerm;61365;52.162;4.500;2024-02-28T04:17:42;43.04;32.96;51.72;;
72686;Laerm;61365;52.162;4.500;2024-02-28T04:20:12;42.94;32.44;51.47;;
72686;Laerm;61365;52.162;4.500;2024-02-28T04:22:39;42.74;32.53;50.07;;
72686;Laerm;61365;52.162;4.500;2024-02-28T04:25:07;42.73;32.30;47.52;;
72686;Laerm;61365;52.162;4.500;2024-02-28T04:27:34;42.91;33.12;50.88;;
72686;Laerm;61365;52.162;4.500;2024-02-28T04:30:01;42.74;32.90;50.87;;
72686;Laerm;61365;52.162;4.500;2024-02-28T04:32:27;42.89;33.66;50.65;;
72686;Laerm;61365;52.162;4.500;2024-02-28T04:34:53;42.88;32.85;51.62;;
72686;Laerm;61365;52.162;4.500;2024-02-28T04:37:19;42.94;33.32;51.64;;
72686;Laerm;61365;52.162;4.500;2024-02-28T04:39:45;42.94;32.73;47.59;;
72686;Laerm;61365;52.162;4.500;2024-02-28T04:42:12;43.01;32.05;49.59;;
72686;Laerm;61365;52.162;4.500;2024-02-28T04:44:38;42.99;34.04;48.28;;
72686;Laerm;61365;52.162;4.500;2024-02-28T04:47:05;42.99;33.02;51.81;;
72686;Laerm;61365;52.162;4.500;2024-02-28T04:49:31;43.05;32.91;49.54;;
72686;Laerm;61365;52.162;4.500;2024-02-28T04:51:57;43.03;31.86;49.78;;
72686;Laerm;61365;52.162;4.500;2024-02-28T04:54:24;43.10;32.29;51.71;;
72686;Laerm;61365;52.162;4.500;2024-02-28T04:56:50;42.93;31.82;50.62;;
72686;Laerm;61365;52.162;4.500;2024-02-28T04:59:17;42.99;32.61;49.80;;
72686;Laerm;61365;52.162;4.500;2024-02-28T05:01:43;42.99;32.44;50.29;;
72686;Laerm;61365;52.162;4.500;2024-02-28T05:04:11;42.90;32.61;49.59;;
72686;Laerm;61365;52.162;4.500;2024-02-28T05:06:37;42.81;33.27;49.78;;
72686;Laerm;61365;52.162;4.500;2024-02-28T05:09:03;42.91;31.09;50.38;;
72686;Laerm;61365;52.162;4.500;2024-02-28T05:11:29;42.99;31.99;49.94;;
72686;Laerm;61365;52.162;4.500;2024-02-28T05:13:55;43.11;31.93;51.41;;
72686;Laerm;61365;52.162;4.500;2024-02-28T05:16:21;42.99;31.86;51.78;;
72686;Laerm;61365;52.162;4.500;2024-02-28T05:18:47;43.03;31.87;50.74;;
72686;Laerm;61365;52.162;4.500;2024-02-28T05:21:13;42.97;32.16;50.46;;
72686;Laerm;61365;52.162;4.500;2024-02-28T05:23:40;43.07;34.87;47.69;;
72686;Laerm;61365;52.162;4.500;2024-02-28T05:26:06;43.04;33.68;47.96;;
72686;Laerm;61365;52.162;4.500;2024-02-28T05:28:33;43.09;32.27;51.80;;
72686;Laerm;61365;52.162;4.500;2024-02-28T05:31:22;42.99;32.13;50.17;;
72686;Laerm;61365;52.162;4.500;2024-02-28T05:33:53;43.02;32.61;51.90;;
72686;Laerm;61365;52.162;4.500;2024-02-28T05:36:21;42.96;31.89;51.41;;
72686;Laerm;61365;52.162;4.500;2024-02-28T05:38:47;43.01;31.78;51.01;;
72686;Laerm;61365;52.162;4.500;2024-02-28T05:41:13;42.92;32.61;51.16;;
72686;Laerm;61365;52.162;4.500;2024-02-28T05:43:40;42.79;32.36;51.71;;
72686;Laerm;61365;52.162;4.500;2024-02-28T05:46:06;42.76;31.91;51.69;;
72686;Laerm;61365;52.162;4.500;2024-02-28T05:48:32;42.77;32.46;51.55;;
72686;Laerm;61365;52.162;4.500;2024-02-28T05:51:00;42.87;33.45;52.05;;
72686;Laerm;61365;52.162;4.500;2024-02-28T05:53:27;42.80;33.47;50.90;;
72686;Laerm;61365;52.162;4.500;2024-02-28T05:55:53;42.73;32.50;51.83;;
72686;Laerm;61365;52.162;4.500;2024-02-28T05:58:19;42.75;32.42;50.27;;
72686;Laerm;61365;52.162;4.500;2024-02-28T06:00:45;42.72;32.47;50.06;;
72686;Laerm;61365;52.162;4.500;2024-02-28T06:03:13;42.70;32.65;51.44;;
72686;Laerm;61365;52.162;4.500;2024-02-28T06:05:39;42.78;33.27;50.83;;
72686;Laerm;61365;52.162;4.500;2024-02-28T06:08:06;42.77;32.46;50.15;;
72686;Laerm;61365;52.162;4.500;2024-02-28T06:10:32;42.86;32.80;49.34;;
72686;Laerm;61365;52.162;4.500;2024-02-28T06:12:58;42.92;34.27;52.06;;
72686;Laerm;61365;52.162;4.500;2024-02-28T06:15:24;42.73;33.02;51.54;;
72686;Laerm;61365;52.162;4.500;2024-02-28T06:17:50;42.93;32.38;51.31;;
72686;Laerm;61365;52.162;4.500;2024-02-28T06:20:16;42.88;32.69;50.01;;
72686;Laerm;61365;52.162;4.500;2024-02-28T06:22:43;42.84;32.35;49.85;;
72686;Laerm;61365;52.162;4.500;2024-02-28T06:25:09;42.91;34.00;50.50;;
72686;Laerm;61365;52.162;4.500;2024-02-28T06:27:44;42.91;31.72;51.39;;
72686;Laerm;61365;52.162;4.500;2024-02-28T06:30:10;42.93;31.74;51.79;;
72686;Laerm;61365;52.162;4.500;2024-02-28T06:32:38;42.86;32.25;49.83;;
72686;Laerm;61365;52.162;4.500;2024-02-28T06:35:06;42.74;33.13;51.99;;
72686;Laerm;61365;52.162;4.500;2024-02-28T06:37:33;42.79;32.68;51.82;;
72686;Laerm;61365;52.162;4.500;2024-02-28T06:40:00;42.89;32.05;48.23;;
72686;Laerm;61365;52.162;4.500;2024-02-28T06:42:26;43.02;32.37;47.62;;
72686;Laerm;61365;52.162;4.500;2024-02-28T06:44:52;42.97;34.03;48.24;;
72686;Laerm;61365;52.162;4.500;2024-02-28T06:47:18;42.79;32.81;51.84;;
72686;Laerm;61365;52.162;4.500;2024-02-28T06:49:44;42.74;32.86;50.74;;
72686;Laerm;61365;52.162;4.500;2024-02-28T06:52:12;42.85;33.08;49.94;;
72686;Laerm;61365;52.162;4.500;2024-02-28T06:54:38;42.91;31.91;50.95;;
72686;Laerm;61365;52.162;4.500;2024-02-28T06:57:04;42.83;33.25;50.70;;
72686;Laerm;61365;52.162;4.500;2024-02-28T06:59:30;42.80;32.35;51.89;;
72686;Laerm;61365;52.162;4.500;2024-02-28T07:01:57;42.93;33.78;49.27;;
72686;Laerm;61365;52.162;4.500;2024-02-28T07:04:23;42.91;34.30;52.17;;
72686;Laerm;61365;52.162;4.500;2024-02-28T07:06:49;43.00;31.94;50.04;;
72686;Laerm;61365;52.162;4.500;2024-02-28T07:09:16;42.93;32.37;50.75;;
72686;Laerm;61365;52.162;4.500;2024-02-28T07:11:42;42.97;32.06;51.83;;
72686;Laerm;61365;52.162;4.500;2024-02-28T07:14:08;42.92;31.61;49.27;;
72686;Laerm;61365;52.162;4.500;2024-02-28T07:16:34;42.99;33.10;48.56;;
72686;Laerm;61365;52.162;4.500;2024-02-28T07:19:01;42.88;33.54;49.40;;
72686;Laerm;61365;52.162;4.500;2024-02-28T07:21:27;42.96;32.88;50.19;;
72686;Laerm;61365;52.162;4.500;2024-02-28T07:23:53;42.96;32.09;50.15;;
72686;Laerm;61365;52.162;4.500;2024-02-28T07:26:20;42.89;32.08;50.09;;
72686;Laerm;61365;52.162;4.500;2024-02-28T07:28:46;42.85;32.20;49.99;;
72686;Laerm;61365;52.162;4.500;2024-02-28T07:31:16;42.90;32.01;50.87;;
72686;Laerm;61365;52.162;4.500;2024-02-28T07:33:42;42.89;32.94;49.83;;
72686;Laerm;61365;52.162;4.500;2024-02-28T07:36:08;42.69;31.85;51.98;;
72686;Laerm;61365;52.162;4.500;2024-02-28T07:38:36;42.94;32.75;50.22;;
72686;Laerm;61365;52.162;4.500;2024-02-28T07:41:02;42.86;32.84;52.37;;
72686;Laerm;61365;52.162;4.500;2024-02-28T07:43:29;42.95;32.63;51.32;;
72686;Laerm;61365;52.162;4.500;2024-02-28T07:45:59;43.02;34.33;50.52;;
72686;Laerm;61365;52.162;4.500;2024-02-28T07:48:25;42.99;33.59;51.03;;
72686;Laerm;61365;52.162;4.500;2024-02-28T07:50:51;42.94;33.01;52.07;;
72686;Laerm;61365;52.162;4.500;2024-02-28T07:53:17;42.97;32.40;52.71;;
72686;Laerm;61365;52.162;4.500;2024-02-28T07:55:43;42.93;33.30;51.89;;
72686;Laerm;61365;52.162;4.500;2024-02-28T07:58:09;42.92;31.99;52.24;;
72686;Laerm;61365;52.162;4.500;2024-02-28T08:00:35;42.95;33.72;49.61;;
72686;Laerm;61365;52.162;4.500;2024-02-28T08:03:02;43.12;31.85;51.68;;
72686;Laerm;61365;52.162;4.500;2024-02-28T08:05:28;42.97;33.74;52.25;;
72686;Laerm;61365;52.162;4.500;2024-02-28T08:07:54;42.91;31.91;49.74;;
72686;Laerm;61365;52.162;4.500;2024-02-28T08:10:20;42.91;32.61;51.76;;
72686;Laerm;61365;52.162;4.500;2024-02-28T08:12:46;42.84;32.63;52.00;;
72686;Laerm;61365;52.162;4.500;2024-02-28T08:15:12;42.91;32.56;52.20;;
72686;Laerm;61365;52.162;4.500;2024-02-28T08:17:38;42.99;32.55;51.17;;
72686;Laerm;61365;52.162;4.500;2024-02-28T08:20:05;43.14;34.45;51.23;;
72686;Laerm;61365;52.162;4.500;2024-02-28T08:22:31;43.18;32.23;50.05;;
72686;Laerm;61365;52.162;4.500;2024-02-28T08:24:57;43.40;33.24;51.36;;
72686;Laerm;61365;52.162;4.500;2024-02-28T08:27:23;43.31;32.21;51.07;;
72686;Laerm;61365;52.162;4.500;2024-02-28T08:29:50;43.18;32.34;50.38;;
72686;Laerm;61365;52.162;4.500;2024-02-28T08:32:17;43.00;32.08;50.03;;
72686;Laerm;61365;52.162;4.500;2024-02-28T08:34:46;43.22;32.05;50.70;;
72686;Laerm;61365;52.162;4.500;2024-02-28T08:37:13;43.30;33.50;51.23;;
72686;Laerm;61365;52.162;4.500;2024-02-28T08:39:39;42.83;32.65;52.01;;
72686;Laerm;61365;52.162;4.500;2024-02-28T08:42:06;42.76;32.28;52.65;;
72686;Laerm;61365;52.162;4.500;2024-02-28T08:44:32;42.84;33.76;51.36;;
72686;Laerm;61365;52.162;4.500;2024-02-28T08:46:58;42.87;32.73;53.33;;
72686;Laerm;61365;52.162;4.500;2024-02-28T08:49:24;42.82;33.76;51.53;;
72686;Laerm;61365;52.162;4.500;2024-02-28T08:51:50;42.80;32.95;51.45;;
72686;Laerm;61365;52.162;4.500;2024-02-28T08:54:16;42.89;34.58;52.37;;
72686;Laerm;61365;52.162;4.500;2024-02-28T08:56:42;42.81;33.76;52.05;;
72686;Laerm;61365;52.162;4.500;2024-02-28T08:59:08;42.81;33.25;52.56;;
72686;Laerm;61365;52.162;4.500;2024-02-28T09:01:35;42.88;32.94;52.47;;
72686;Laerm;61365;52.162;4.500;2024-02-28T09:04:02;42.75;32.27;51.73;;
72686;Laerm;61365;52.162;4.500;2024-02-28T09:06:29;42.78;33.02;51.95;;
72686;Laerm;61365;52.162;4.500;2024-02-28T09:08:55;42.81;32.43;51.29;;
72686;Laerm;61365;52.162;4.500;2024-02-28T09:11:21;42.80;31.83;50.55;;
72686;Laerm;61365;52.162;4.500;2024-02-28T09:13:47;42.66;32.55;49.84;;
72686;Laerm;61365;52.162;4.500;2024-02-28T09:16:14;42.77;33.30;51.33;;
72686;Laerm;61365;52.162;4.500;2024-02-28T09:18:40;42.72;33.56;51.65;;
72686;Laerm;61365;52.162;4.500;2024-02-28T09:21:07;42.88;33.21;51.74;;
72686;Laerm;61365;52.162;4.500;2024-02-28T09:23:34;42.85;32.25;51.13;;
72686;Laerm;61365;52.162;4.500;2024-02-28T09:26:04;42.73;32.33;49.61;;
72686;Laerm;61365;52.162;4.500;2024-02-28T09:28:31;42.62;33.37;51.79;;
72686;Laerm;61365;52.162;4.500;2024-02-28T09:30:57;42.66;33.70;51.85;;
72686;Laerm;61365;52.162;4.500;2024-02-28T09:33:23;42.84;32.64;50.99;;
72686;Laerm;61365;52.162;4.500;2024-02-28T09:35:49;42.86;32.24;52.00;;
72686;Laerm;61365;52.162;4.500;2024-02-28T09:38:15;42.71;32.76;51.50;;
72686;Laerm;61365;52.162;4.500;2024-02-28T09:40:45;42.64;34.85;52.98;;
72686;Laerm;61365;52.162;4.500;2024-02-28T09:43:17;42.53;33.32;51.14;;
72686;Laerm;61365;52.162;4.500;2024-02-28T09:45:45;42.57;32.72;51.79;;
72686;Laerm;61365;52.162;4.500;2024-02-28T09:48:12;42.61;33.29;50.62;;
72686;Laerm;61365;52.162;4.500;2024-02-28T09:50:38;42.51;32.40;51.97;;
72686;Laerm;61365;52.162;4.500;2024-02-28T09:53:05;42.68;33.45;53.39;;
72686;Laerm;61365;52.162;4.500;2024-02-28T09:55:31;42.71;31.87;51.62;;
72686;Laerm;61365;52.162;4.500;2024-02-28T09:57:58;42.71;33.29;49.09;;
72686;Laerm;61365;52.162;4.500;2024-02-28T10:00:26;42.81;33.13;51.12;;
72686;Laerm;61365;52.162;4.500;2024-02-28T10:02:53;42.57;32.40;51.45;;
72686;Laerm;61365;52.162;4.500;2024-02-28T10:05:21;42.71;33.44;51.84;;
72686;Laerm;61365;52.162;4.500;2024-02-28T10:07:52;42.78;33.53;51.66;;
72686;Laerm;61365;52.162;4.500;2024-02-28T10:10:19;42.74;33.31;52.54;;
72686;Laerm;61365;52.162;4.500;2024-02-28T10:12:45;42.75;32.18;52.09;;
72686;Laerm;61365;52.162;4.500;2024-02-28T10:15:11;42.74;33.87;50.90;;
72686;Laerm;61365;52.162;4.500;2024-02-28T10:17:37;42.80;32.86;51.77;;
72686;Laerm;61365;52.162;4.500;2024-02-28T10:20:04;42.69;33.22;51.26;;
72686;Laerm;61365;52.162;4.500;2024-02-28T10:22:36;42.77;33.95;52.42;;
72686;Laerm;61365;52.162;4.500;2024-02-28T10:25:03;42.80;32.16;50.02;;
72686;Laerm;61365;52.162;4.500;2024-02-28T10:27:33;42.69;32.20;51.82;;
72686;Laerm;61365;52.162;4.500;2024-02-28T10:30:00;42.79;34.09;49.18;;
72686;Laerm;61365;52.162;4.500;2024-02-28T10:32:31;42.75;31.86;51.16;;
72686;Laerm;61365;52.162;4.500;2024-02-28T10:35:00;42.76;32.16;51.17;;
72686;Laerm;61365;52.162;4.500;2024-02-28T10:37:28;42.82;32.61;51.68;;
72686;Laerm;61365;52.162;4.500;2024-02-28T10:39:57;43.00;32.95;52.53;;
72686;Laerm;61365;52.162;4.500;2024-02-28T10:42:29;42.75;33.43;52.16;;
72686;Laerm;61365;52.162;4.500;2024-02-28T10:44:57;42.91;34.04;51.24;;
72686;Laerm;61365;52.162;4.500;2024-02-28T10:47:25;42.70;32.64;52.28;;
72686;Laerm;61365;52.162;4.500;2024-02-28T10:49:52;42.84;32.91;52.84;;
72686;Laerm;61365;52.162;4.500;2024-02-28T10:52:21;42.73;32.62;53.15;;
72686;Laerm;61365;52.162;4.500;2024-02-28T10:54:54;42.70;31.93;51.32;;
72686;Laerm;61365;52.162;4.500;2024-02-28T10:57:25;42.72;33.98;51.01;;
72686;Laerm;61365;52.162;4.500;2024-02-28T10:59:51;42.80;32.90;52.24;;
72686;Laerm;61365;52.162;4.500;2024-02-28T11:02:18;42.72;31.90;52.37;;
72686;Laerm;61365;52.162;4.500;2024-02-28T11:04:44;42.61;33.25;51.89;;
72686;Laerm;61365;52.162;4.500;2024-02-28T11:07:10;42.66;32.65;50.40;;
72686;Laerm;61365;52.162;4.500;2024-02-28T11:09:40;42.78;32.66;52.46;;
72686;Laerm;61365;52.162;4.500;2024-02-28T11:12:24;42.79;32.14;51.60;;
72686;Laerm;61365;52.162;4.500;2024-02-28T11:15:00;42.79;34.56;50.53;;
72686;Laerm;61365;52.162;4.500;2024-02-28T11:17:28;42.85;32.56;51.94;;
72686;Laerm;61365;52.162;4.500;2024-02-28T11:19:55;42.64;32.31;50.23;;
72686;Laerm;61365;52.162;4.500;2024-02-28T11:22:21;42.58;32.11;50.63;;
72686;Laerm;61365;52.162;4.500;2024-02-28T11:24:48;42.71;32.79;51.05;;
72686;Laerm;61365;52.162;4.500;2024-02-28T11:27:17;42.76;32.70;51.71;;
72686;Laerm;61365;52.162;4.500;2024-02-28T11:29:43;42.79;32.28;50.66;;
72686;Laerm;61365;52.162;4.500;2024-02-28T11:32:11;42.79;33.89;51.60;;
72686;Laerm;61365;52.162;4.500;2024-02-28T11:34:38;42.79;33.77;51.65;;
72686;Laerm;61365;52.162;4.500;2024-02-28T11:37:08;42.80;31.98;50.36;;
72686;Laerm;61365;52.162;4.500;2024-02-28T11:39:34;42.89;32.59;51.12;;
72686;Laerm;61365;52.162;4.500;2024-02-28T11:42:15;42.83;33.08;51.90;;
72686;Laerm;61365;52.162;4.500;2024-02-28T11:44:41;42.59;33.41;51.42;;
72686;Laerm;61365;52.162;4.500;2024-02-28T11:47:09;42.81;32.77;51.07;;
72686;Laerm;61365;52.162;4.500;2024-02-28T11:49:38;42.93;32.53;51.69;;
72686;Laerm;61365;52.162;4.500;2024-02-28T11:52:05;42.84;31.79;51.66;;
72686;Laerm;61365;52.162;4.500;2024-02-28T11:54:31;42.71;34.90;52.37;;
72686;Laerm;61365;52.162;4.500;2024-02-28T11:56:58;42.63;33.41;51.96;;
72686;Laerm;61365;52.162;4.500;2024-02-28T11:59:24;42.68;34.05;49.67;;
72686;Laerm;61365;52.162;4.500;2024-02-28T12:01:50;42.68;33.39;51.37;;
72686;Laerm;61365;52.162;4.500;2024-02-28T12:04:18;42.64;33.66;51.56;;
72686;Laerm;61365;52.162;4.500;2024-02-28T12:06:44;42.58;32.19;53.03;;
72686;Laerm;61365;52.162;4.500;2024-02-28T12:09:12;42.61;32.77;50.36;;
72686;Laerm;61365;52.162;4.500;2024-02-28T12:11:40;42.52;34.02;52.26;;
72686;Laerm;61365;52.162;4.500;2024-02-28T12:14:07;42.56;34.65;51.85;;
72686;Laerm;61365;52.162;4.500;2024-02-28T12:16:38;42.56;34.50;51.55;;
72686;Laerm;61365;52.162;4.500;2024-02-28T12:19:09;42.57;32.59;51.72;;
72686;Laerm;61365;52.162;4.500;2024-02-28T12:21:39;42.64;33.15;51.39;;
72686;Laerm;61365;52.162;4.500;2024-02-28T12:24:10;42.58;33.39;52.47;;
72686;Laerm;61365;52.162;4.500;2024-02-28T12:26:39;42.67;32.10;51.44;;
72686;Laerm;61365;52.162;4.500;2024-02-28T12:29:06;42.60;33.54;51.14;;
72686;Laerm;61365;52.162;4.500;2024-02-28T12:31:32;42.53;33.55;50.09;;
72686;Laerm;61365;52.162;4.500;2024-02-28T12:33:59;42.58;34.03;50.56;;
72686;Laerm;61365;52.162;4.500;2024-02-28T12:36:25;42.62;33.07;52.21;;
72686;Laerm;61365;52.162;4.500;2024-02-28T12:38:52;42.58;32.95;50.99;;
72686;Laerm;61365;52.162;4.500;2024-02-28T12:41:18;42.56;34.82;50.71;;
72686;Laerm;61365;52.162;4.500;2024-02-28T12:43:44;42.64;33.76;49.94;;
72686;Laerm;61365;52.162;4.500;2024-02-28T12:46:10;42.60;32.30;50.81;;
72686;Laerm;61365;52.162;4.500;2024-02-28T12:48:38;42.56;32.70;51.90;;
72686;Laerm;61365;52.162;4.500;2024-02-28T12:51:05;42.62;33.66;50.92;;
72686;Laerm;61365;52.162;4.500;2024-02-28T12:53:32;42.56;33.67;51.91;;
72686;Laerm;61365;52.162;4.500;2024-02-28T12:55:58;42.76;33.92;47.03;;
72686;Laerm;61365;52.162;4.500;2024-02-28T12:58:24;42.64;32.37;50.54;;
72686;Laerm;61365;52.162;4.500;2024-02-28T13:00:50;42.64;32.81;50.93;;
72686;Laerm;61365;52.162;4.500;2024-02-28T13:03:16;42.59;31.71;50.77;;
72686;Laerm;61365;52.162;4.500;2024-02-28T13:05:43;42.60;32.36;51.10;;
72686;Laerm;61365;52.162;4.500;2024-02-28T13:08:10;42.70;32.19;51.71;;
72686;Laerm;61365;52.162;4.500;2024-02-28T13:10:36;42.68;31.83;50.64;;
72686;Laerm;61365;52.162;4.500;2024-02-28T13:13:07;42.71;34.41;52.51;;
72686;Laerm;61365;52.162;4.500;2024-02-28T13:15:33;42.74;32.67;52.24;;
72686;Laerm;61365;52.162;4.500;2024-02-28T13:18:00;42.67;35.63;50.43;;
72686;Laerm;61365;52.162;4.500;2024-02-28T13:20:27;42.68;32.24;48.36;;
72686;Laerm;61365;52.162;4.500;2024-02-28T13:22:53;42.59;34.00;51.37;;
72686;Laerm;61365;52.162;4.500;2024-02-28T13:25:20;42.57;32.51;50.87;;
72686;Laerm;61365;52.162;4.500;2024-02-28T13:27:46;42.58;33.35;51.01;;
72686;Laerm;61365;52.162;4.500;2024-02-28T13:30:13;42.59;32.12;51.54;;
72686;Laerm;61365;52.162;4.500;2024-02-28T13:32:40;42.55;33.43;51.85;;
72686;Laerm;61365;52.162;4.500;2024-02-28T13:35:07;42.60;33.59;51.11;;
72686;Laerm;61365;52.162;4.500;2024-02-28T13:37:33;42.63;33.44;51.10;;
72686;Laerm;61365;52.162;4.500;2024-02-28T13:39:59;42.67;33.33;51.10;;
72686;Laerm;61365;52.162;4.500;2024-02-28T13:42:25;42.74;35.40;51.96;;